sensor_id;sensor_type;location;lat;lon;timestamp;P1;durP1;ratioP1;P2;durP2;ratioP2
19187;SDS011;9726;52.198;8.792;2024-02-28T00:00:29;66.40;;;26.20;;
19187;SDS011;9726;52.198;8.792;2024-02-28T00:02:56;75.00;;;29.13;;
19187;SDS011;9726;52.198;8.792;2024-02-28T00:05:23;80.90;;;29.63;;
19187;SDS011;9726;52.198;8.792;2024-02-28T00:07:50;75.90;;;28.67;;
19187;SDS011;9726;52.198;8.792;2024-02-28T00:10:19;67.87;;;27.67;;
19187;SDS011;9726;52.198;8.792;2024-02-28T00:12:47;65.57;;;27.00;;
19187;SDS011;9726;52.198;8.792;2024-02-28T00:15:14;67.43;;;26.67;;
19187;SDS011;9726;52.198;8.792;2024-02-28T00:17:42;71.13;;;27.33;;
19187;SDS011;9726;52.198;8.792;2024-02-28T00:20:10;61.47;;;26.27;;
19187;SDS011;9726;52.198;8.792;2024-02-28T00:22:39;60.90;;;26.00;;
19187;SDS011;9726;52.198;8.792;2024-02-28T00:25:06;68.43;;;28.43;;
19187;SDS011;9726;52.198;8.792;2024-02-28T00:27:34;63.83;;;28.20;;
19187;SDS011;9726;52.198;8.792;2024-02-28T00:30:02;72.83;;;27.73;;
19187;SDS011;9726;52.198;8.792;2024-02-28T00:32:33;68.33;;;26.90;;
19187;SDS011;9726;52.198;8.792;2024-02-28T00:35:00;69.87;;;28.23;;
19187;SDS011;9726;52.198;8.792;2024-02-28T00:37:27;70.73;;;28.23;;
19187;SDS011;9726;52.198;8.792;2024-02-28T00:39:54;66.43;;;25.17;;
19187;SDS011;9726;52.198;8.792;2024-02-28T00:42:21;68.87;;;29.30;;
19187;SDS011;9726;52.198;8.792;2024-02-28T00:44:48;61.80;;;25.60;;
19187;SDS011;9726;52.198;8.792;2024-02-28T00:47:16;75.70;;;28.50;;
19187;SDS011;9726;52.198;8.792;2024-02-28T00:49:43;66.03;;;26.93;;
19187;SDS011;9726;52.198;8.792;2024-02-28T00:52:10;66.97;;;28.37;;
19187;SDS011;9726;52.198;8.792;2024-02-28T00:54:37;80.13;;;29.17;;
19187;SDS011;9726;52.198;8.792;2024-02-28T00:57:04;74.63;;;29.77;;
19187;SDS011;9726;52.198;8.792;2024-02-28T00:59:31;67.30;;;28.63;;
19187;SDS011;9726;52.198;8.792;2024-02-28T01:01:58;73.80;;;30.30;;
19187;SDS011;9726;52.198;8.792;2024-02-28T01:04:25;80.37;;;29.80;;
19187;SDS011;9726;52.198;8.792;2024-02-28T01:06:52;73.10;;;28.53;;
19187;SDS011;9726;52.198;8.792;2024-02-28T01:09:20;77.40;;;29.77;;
19187;SDS011;9726;52.198;8.792;2024-02-28T01:11:48;76.20;;;28.13;;
19187;SDS011;9726;52.198;8.792;2024-02-28T01:14:15;70.17;;;28.47;;
19187;SDS011;9726;52.198;8.792;2024-02-28T01:16:42;73.53;;;29.80;;
19187;SDS011;9726;52.198;8.792;2024-02-28T01:19:09;71.77;;;28.17;;
19187;SDS011;9726;52.198;8.792;2024-02-28T01:21:36;68.13;;;27.30;;
19187;SDS011;9726;52.198;8.792;2024-02-28T01:24:06;86.90;;;31.30;;
19187;SDS011;9726;52.198;8.792;2024-02-28T01:26:33;84.17;;;32.00;;
19187;SDS011;9726;52.198;8.792;2024-02-28T01:29:00;83.63;;;31.50;;
19187;SDS011;9726;52.198;8.792;2024-02-28T01:31:27;79.37;;;30.37;;
19187;SDS011;9726;52.198;8.792;2024-02-28T01:33:54;77.80;;;28.90;;
19187;SDS011;9726;52.198;8.792;2024-02-28T01:36:22;83.50;;;32.43;;
19187;SDS011;9726;52.198;8.792;2024-02-28T01:38:49;84.30;;;30.07;;
19187;SDS011;9726;52.198;8.792;2024-02-28T01:41:16;85.63;;;31.77;;
19187;SDS011;9726;52.198;8.792;2024-02-28T01:43:43;86.00;;;32.33;;
19187;SDS011;9726;52.198;8.792;2024-02-28T01:48:55;74.63;;;30.43;;
19187;SDS011;9726;52.198;8.792;2024-02-28T01:51:24;81.00;;;32.87;;
19187;SDS011;9726;52.198;8.792;2024-02-28T01:53:53;72.27;;;28.73;;
19187;SDS011;9726;52.198;8.792;2024-02-28T01:56:22;80.63;;;31.00;;
19187;SDS011;9726;52.198;8.792;2024-02-28T01:58:52;80.90;;;34.63;;
19187;SDS011;9726;52.198;8.792;2024-02-28T02:01:20;80.43;;;33.40;;
19187;SDS011;9726;52.198;8.792;2024-02-28T02:03:51;82.17;;;34.73;;
19187;SDS011;9726;52.198;8.792;2024-02-28T02:06:18;94.90;;;34.53;;
19187;SDS011;9726;52.198;8.792;2024-02-28T02:08:45;85.27;;;33.73;;
19187;SDS011;9726;52.198;8.792;2024-02-28T02:11:14;85.13;;;33.93;;
19187;SDS011;9726;52.198;8.792;2024-02-28T02:13:48;77.57;;;31.57;;
19187;SDS011;9726;52.198;8.792;2024-02-28T02:16:16;83.23;;;32.80;;
19187;SDS011;9726;52.198;8.792;2024-02-28T02:18:46;91.67;;;34.63;;
19187;SDS011;9726;52.198;8.792;2024-02-28T02:21:15;89.20;;;32.57;;
19187;SDS011;9726;52.198;8.792;2024-02-28T02:23:46;82.30;;;33.23;;
19187;SDS011;9726;52.198;8.792;2024-02-28T02:26:13;81.87;;;32.23;;
19187;SDS011;9726;52.198;8.792;2024-02-28T02:28:40;79.83;;;32.37;;
19187;SDS011;9726;52.198;8.792;2024-02-28T02:31:07;80.83;;;32.00;;
19187;SDS011;9726;52.198;8.792;2024-02-28T02:33:34;86.23;;;30.47;;
19187;SDS011;9726;52.198;8.792;2024-02-28T02:36:01;87.80;;;32.97;;
19187;SDS011;9726;52.198;8.792;2024-02-28T02:38:29;86.77;;;34.33;;
19187;SDS011;9726;52.198;8.792;2024-02-28T02:40:56;87.37;;;34.10;;
19187;SDS011;9726;52.198;8.792;2024-02-28T02:43:23;117.20;;;34.07;;
19187;SDS011;9726;52.198;8.792;2024-02-28T02:45:50;94.30;;;36.73;;
19187;SDS011;9726;52.198;8.792;2024-02-28T02:48:17;111.83;;;36.60;;
19187;SDS011;9726;52.198;8.792;2024-02-28T02:50:44;130.57;;;38.00;;
19187;SDS011;9726;52.198;8.792;2024-02-28T02:53:11;169.97;;;40.43;;
19187;SDS011;9726;52.198;8.792;2024-02-28T02:55:39;112.37;;;39.30;;
19187;SDS011;9726;52.198;8.792;2024-02-28T02:58:06;97.00;;;35.37;;
19187;SDS011;9726;52.198;8.792;2024-02-28T03:00:33;335.80;;;50.97;;
19187;SDS011;9726;52.198;8.792;2024-02-28T03:03:00;99.43;;;35.47;;
19187;SDS011;9726;52.198;8.792;2024-02-28T03:05:27;153.27;;;38.33;;
19187;SDS011;9726;52.198;8.792;2024-02-28T03:07:57;307.17;;;43.67;;
19187;SDS011;9726;52.198;8.792;2024-02-28T03:10:24;162.17;;;37.60;;
19187;SDS011;9726;52.198;8.792;2024-02-28T03:12:52;222.63;;;38.83;;
19187;SDS011;9726;52.198;8.792;2024-02-28T03:15:19;181.57;;;37.37;;
19187;SDS011;9726;52.198;8.792;2024-02-28T03:17:47;165.37;;;36.43;;
19187;SDS011;9726;52.198;8.792;2024-02-28T03:20:14;165.63;;;38.53;;
19187;SDS011;9726;52.198;8.792;2024-02-28T03:22:41;236.57;;;37.47;;
19187;SDS011;9726;52.198;8.792;2024-02-28T03:25:08;411.17;;;47.30;;
19187;SDS011;9726;52.198;8.792;2024-02-28T03:27:36;330.00;;;42.43;;
19187;SDS011;9726;52.198;8.792;2024-02-28T03:30:03;200.80;;;33.47;;
19187;SDS011;9726;52.198;8.792;2024-02-28T03:32:31;257.27;;;35.20;;
19187;SDS011;9726;52.198;8.792;2024-02-28T03:34:58;118.73;;;33.83;;
19187;SDS011;9726;52.198;8.792;2024-02-28T03:37:25;118.23;;;37.03;;
19187;SDS011;9726;52.198;8.792;2024-02-28T03:39:53;158.60;;;35.80;;
19187;SDS011;9726;52.198;8.792;2024-02-28T03:42:20;165.17;;;36.33;;
19187;SDS011;9726;52.198;8.792;2024-02-28T03:44:48;185.07;;;35.33;;
19187;SDS011;9726;52.198;8.792;2024-02-28T03:47:15;208.57;;;36.80;;
19187;SDS011;9726;52.198;8.792;2024-02-28T03:49:42;287.63;;;39.13;;
19187;SDS011;9726;52.198;8.792;2024-02-28T03:52:09;441.63;;;46.90;;
19187;SDS011;9726;52.198;8.792;2024-02-28T03:54:36;225.17;;;34.57;;
19187;SDS011;9726;52.198;8.792;2024-02-28T03:57:03;358.20;;;37.40;;
19187;SDS011;9726;52.198;8.792;2024-02-28T03:59:31;287.83;;;36.67;;
19187;SDS011;9726;52.198;8.792;2024-02-28T04:01:58;390.17;;;42.37;;
19187;SDS011;9726;52.198;8.792;2024-02-28T04:04:25;142.47;;;32.60;;
19187;SDS011;9726;52.198;8.792;2024-02-28T04:06:52;347.80;;;39.47;;
19187;SDS011;9726;52.198;8.792;2024-02-28T04:09:19;403.37;;;35.63;;
19187;SDS011;9726;52.198;8.792;2024-02-28T04:11:47;468.93;;;43.77;;
19187;SDS011;9726;52.198;8.792;2024-02-28T04:14:14;386.97;;;38.20;;
19187;SDS011;9726;52.198;8.792;2024-02-28T04:16:42;322.60;;;36.80;;
19187;SDS011;9726;52.198;8.792;2024-02-28T04:19:13;333.23;;;38.07;;
19187;SDS011;9726;52.198;8.792;2024-02-28T04:21:40;386.80;;;38.90;;
19187;SDS011;9726;52.198;8.792;2024-02-28T04:24:07;300.30;;;37.83;;
19187;SDS011;9726;52.198;8.792;2024-02-28T04:26:36;850.80;;;72.67;;
19187;SDS011;9726;52.198;8.792;2024-02-28T04:29:03;156.37;;;33.37;;
19187;SDS011;9726;52.198;8.792;2024-02-28T04:31:32;305.40;;;38.43;;
19187;SDS011;9726;52.198;8.792;2024-02-28T04:33:59;281.97;;;38.63;;
19187;SDS011;9726;52.198;8.792;2024-02-28T04:36:26;401.67;;;41.47;;
19187;SDS011;9726;52.198;8.792;2024-02-28T04:38:53;129.73;;;32.80;;
19187;SDS011;9726;52.198;8.792;2024-02-28T04:41:20;181.47;;;36.03;;
19187;SDS011;9726;52.198;8.792;2024-02-28T04:43:47;132.80;;;31.43;;
19187;SDS011;9726;52.198;8.792;2024-02-28T04:46:14;373.07;;;45.90;;
19187;SDS011;9726;52.198;8.792;2024-02-28T04:48:42;113.70;;;32.53;;
19187;SDS011;9726;52.198;8.792;2024-02-28T04:51:09;298.33;;;40.13;;
19187;SDS011;9726;52.198;8.792;2024-02-28T04:53:38;661.83;;;58.67;;
19187;SDS011;9726;52.198;8.792;2024-02-28T04:56:06;551.13;;;51.03;;
19187;SDS011;9726;52.198;8.792;2024-02-28T04:58:33;724.27;;;61.23;;
19187;SDS011;9726;52.198;8.792;2024-02-28T05:01:00;544.87;;;55.70;;
19187;SDS011;9726;52.198;8.792;2024-02-28T05:03:28;149.40;;;33.90;;
19187;SDS011;9726;52.198;8.792;2024-02-28T05:05:55;300.17;;;36.27;;
19187;SDS011;9726;52.198;8.792;2024-02-28T05:08:23;587.43;;;57.23;;
19187;SDS011;9726;52.198;8.792;2024-02-28T05:10:51;381.37;;;44.33;;
19187;SDS011;9726;52.198;8.792;2024-02-28T05:13:18;352.03;;;43.70;;
19187;SDS011;9726;52.198;8.792;2024-02-28T05:15:46;246.23;;;36.23;;
19187;SDS011;9726;52.198;8.792;2024-02-28T05:18:13;316.37;;;40.33;;
19187;SDS011;9726;52.198;8.792;2024-02-28T05:20:40;417.13;;;44.33;;
19187;SDS011;9726;52.198;8.792;2024-02-28T05:23:07;178.93;;;34.50;;
19187;SDS011;9726;52.198;8.792;2024-02-28T05:25:34;689.73;;;58.47;;
19187;SDS011;9726;52.198;8.792;2024-02-28T05:28:01;726.80;;;63.57;;
19187;SDS011;9726;52.198;8.792;2024-02-28T05:30:33;1215.23;;;93.33;;
19187;SDS011;9726;52.198;8.792;2024-02-28T05:33:12;806.30;;;67.10;;
19187;SDS011;9726;52.198;8.792;2024-02-28T05:35:42;273.63;;;40.47;;
19187;SDS011;9726;52.198;8.792;2024-02-28T05:38:09;167.27;;;34.30;;
19187;SDS011;9726;52.198;8.792;2024-02-28T05:40:36;159.60;;;36.57;;
19187;SDS011;9726;52.198;8.792;2024-02-28T05:43:04;125.47;;;36.57;;
19187;SDS011;9726;52.198;8.792;2024-02-28T05:45:31;163.37;;;37.70;;
19187;SDS011;9726;52.198;8.792;2024-02-28T05:48:00;100.43;;;33.90;;
19187;SDS011;9726;52.198;8.792;2024-02-28T05:50:32;102.17;;;33.63;;
19187;SDS011;9726;52.198;8.792;2024-02-28T05:53:00;111.47;;;35.43;;
19187;SDS011;9726;52.198;8.792;2024-02-28T05:55:27;105.17;;;36.83;;
19187;SDS011;9726;52.198;8.792;2024-02-28T05:57:55;88.47;;;34.17;;
19187;SDS011;9726;52.198;8.792;2024-02-28T06:00:23;113.87;;;36.73;;
19187;SDS011;9726;52.198;8.792;2024-02-28T06:02:50;95.53;;;33.23;;
19187;SDS011;9726;52.198;8.792;2024-02-28T06:05:17;101.43;;;38.33;;
19187;SDS011;9726;52.198;8.792;2024-02-28T06:07:44;1476.00;;;105.47;;
19187;SDS011;9726;52.198;8.792;2024-02-28T06:10:11;1847.90;;;120.03;;
19187;SDS011;9726;52.198;8.792;2024-02-28T06:12:39;1264.77;;;90.70;;
19187;SDS011;9726;52.198;8.792;2024-02-28T06:15:07;609.83;;;58.17;;
19187;SDS011;9726;52.198;8.792;2024-02-28T06:17:34;124.63;;;35.50;;
19187;SDS011;9726;52.198;8.792;2024-02-28T06:20:01;125.93;;;35.70;;
19187;SDS011;9726;52.198;8.792;2024-02-28T06:22:29;222.33;;;41.67;;
19187;SDS011;9726;52.198;8.792;2024-02-28T06:24:56;99.60;;;34.50;;
19187;SDS011;9726;52.198;8.792;2024-02-28T06:27:23;109.17;;;37.77;;
19187;SDS011;9726;52.198;8.792;2024-02-28T06:29:51;229.17;;;41.37;;
19187;SDS011;9726;52.198;8.792;2024-02-28T06:32:18;116.60;;;37.80;;
19187;SDS011;9726;52.198;8.792;2024-02-28T06:34:46;87.13;;;34.20;;
19187;SDS011;9726;52.198;8.792;2024-02-28T06:37:13;124.67;;;36.77;;
19187;SDS011;9726;52.198;8.792;2024-02-28T06:39:40;102.70;;;38.80;;
19187;SDS011;9726;52.198;8.792;2024-02-28T06:42:08;114.33;;;39.20;;
19187;SDS011;9726;52.198;8.792;2024-02-28T06:44:35;137.93;;;39.07;;
19187;SDS011;9726;52.198;8.792;2024-02-28T06:47:02;125.10;;;39.50;;
19187;SDS011;9726;52.198;8.792;2024-02-28T06:49:29;131.83;;;39.53;;
19187;SDS011;9726;52.198;8.792;2024-02-28T06:51:56;140.10;;;42.43;;
19187;SDS011;9726;52.198;8.792;2024-02-28T06:54:27;133.47;;;40.30;;
19187;SDS011;9726;52.198;8.792;2024-02-28T06:56:54;104.67;;;40.03;;
19187;SDS011;9726;52.198;8.792;2024-02-28T06:59:22;110.73;;;39.30;;
19187;SDS011;9726;52.198;8.792;2024-02-28T07:01:49;106.70;;;37.27;;
19187;SDS011;9726;52.198;8.792;2024-02-28T07:04:16;113.23;;;37.07;;
19187;SDS011;9726;52.198;8.792;2024-02-28T07:06:43;102.00;;;36.23;;
19187;SDS011;9726;52.198;8.792;2024-02-28T07:09:11;126.17;;;38.33;;
19187;SDS011;9726;52.198;8.792;2024-02-28T07:11:38;110.37;;;39.47;;
19187;SDS011;9726;52.198;8.792;2024-02-28T07:14:05;114.83;;;40.63;;
19187;SDS011;9726;52.198;8.792;2024-02-28T07:16:32;119.43;;;39.80;;
19187;SDS011;9726;52.198;8.792;2024-02-28T07:19:00;123.17;;;44.77;;
19187;SDS011;9726;52.198;8.792;2024-02-28T07:21:28;119.80;;;42.80;;
19187;SDS011;9726;52.198;8.792;2024-02-28T07:23:56;132.30;;;44.27;;
19187;SDS011;9726;52.198;8.792;2024-02-28T07:26:23;128.53;;;45.17;;
19187;SDS011;9726;52.198;8.792;2024-02-28T07:28:53;115.83;;;41.70;;
19187;SDS011;9726;52.198;8.792;2024-02-28T07:31:20;125.60;;;43.63;;
19187;SDS011;9726;52.198;8.792;2024-02-28T07:33:48;130.30;;;43.97;;
19187;SDS011;9726;52.198;8.792;2024-02-28T07:36:15;139.67;;;44.10;;
19187;SDS011;9726;52.198;8.792;2024-02-28T07:38:43;143.20;;;44.77;;
19187;SDS011;9726;52.198;8.792;2024-02-28T07:41:10;135.77;;;42.23;;
19187;SDS011;9726;52.198;8.792;2024-02-28T07:43:41;160.43;;;48.23;;
19187;SDS011;9726;52.198;8.792;2024-02-28T07:46:09;138.70;;;46.57;;
19187;SDS011;9726;52.198;8.792;2024-02-28T07:48:39;150.20;;;45.30;;
19187;SDS011;9726;52.198;8.792;2024-02-28T07:51:06;143.67;;;46.47;;
19187;SDS011;9726;52.198;8.792;2024-02-28T07:53:34;149.33;;;43.70;;
19187;SDS011;9726;52.198;8.792;2024-02-28T07:56:02;136.27;;;42.43;;
19187;SDS011;9726;52.198;8.792;2024-02-28T07:58:29;158.20;;;48.17;;
19187;SDS011;9726;52.198;8.792;2024-02-28T08:00:56;146.80;;;45.20;;
19187;SDS011;9726;52.198;8.792;2024-02-28T08:03:23;192.63;;;50.93;;
19187;SDS011;9726;52.198;8.792;2024-02-28T08:05:51;201.77;;;50.83;;
19187;SDS011;9726;52.198;8.792;2024-02-28T08:08:17;173.77;;;51.87;;
19187;SDS011;9726;52.198;8.792;2024-02-28T08:10:44;186.03;;;51.00;;
19187;SDS011;9726;52.198;8.792;2024-02-28T08:13:13;200.30;;;53.13;;
19187;SDS011;9726;52.198;8.792;2024-02-28T08:15:40;206.67;;;52.63;;
19187;SDS011;9726;52.198;8.792;2024-02-28T08:18:07;176.67;;;50.40;;
19187;SDS011;9726;52.198;8.792;2024-02-28T08:20:34;183.13;;;50.57;;
19187;SDS011;9726;52.198;8.792;2024-02-28T08:23:02;204.20;;;53.77;;
19187;SDS011;9726;52.198;8.792;2024-02-28T08:25:30;203.17;;;52.17;;
19187;SDS011;9726;52.198;8.792;2024-02-28T08:27:58;224.90;;;54.80;;
19187;SDS011;9726;52.198;8.792;2024-02-28T08:30:26;234.47;;;54.47;;
19187;SDS011;9726;52.198;8.792;2024-02-28T08:32:53;212.33;;;53.83;;
19187;SDS011;9726;52.198;8.792;2024-02-28T08:35:20;251.93;;;57.27;;
19187;SDS011;9726;52.198;8.792;2024-02-28T08:37:47;226.57;;;56.73;;
19187;SDS011;9726;52.198;8.792;2024-02-28T08:40:14;244.37;;;56.37;;
19187;SDS011;9726;52.198;8.792;2024-02-28T08:42:41;244.87;;;57.10;;
19187;SDS011;9726;52.198;8.792;2024-02-28T08:45:09;244.90;;;59.47;;
19187;SDS011;9726;52.198;8.792;2024-02-28T08:47:36;255.60;;;58.63;;
19187;SDS011;9726;52.198;8.792;2024-02-28T08:50:04;250.40;;;56.07;;
19187;SDS011;9726;52.198;8.792;2024-02-28T08:52:31;245.87;;;58.20;;
19187;SDS011;9726;52.198;8.792;2024-02-28T08:55:00;235.60;;;57.33;;
19187;SDS011;9726;52.198;8.792;2024-02-28T08:57:27;259.67;;;59.47;;
19187;SDS011;9726;52.198;8.792;2024-02-28T08:59:56;243.27;;;57.97;;
19187;SDS011;9726;52.198;8.792;2024-02-28T09:02:23;254.10;;;59.50;;
19187;SDS011;9726;52.198;8.792;2024-02-28T09:04:50;235.23;;;57.00;;
19187;SDS011;9726;52.198;8.792;2024-02-28T09:07:19;238.80;;;59.33;;
19187;SDS011;9726;52.198;8.792;2024-02-28T09:09:46;242.47;;;59.00;;
19187;SDS011;9726;52.198;8.792;2024-02-28T09:12:14;257.93;;;59.27;;
19187;SDS011;9726;52.198;8.792;2024-02-28T09:14:41;244.73;;;60.33;;
19187;SDS011;9726;52.198;8.792;2024-02-28T09:17:08;247.60;;;59.83;;
19187;SDS011;9726;52.198;8.792;2024-02-28T09:19:35;222.30;;;57.77;;
19187;SDS011;9726;52.198;8.792;2024-02-28T09:22:02;220.40;;;56.87;;
19187;SDS011;9726;52.198;8.792;2024-02-28T09:24:32;229.17;;;57.10;;
19187;SDS011;9726;52.198;8.792;2024-02-28T09:27:00;212.53;;;55.27;;
19187;SDS011;9726;52.198;8.792;2024-02-28T09:29:30;196.87;;;54.73;;
19187;SDS011;9726;52.198;8.792;2024-02-28T09:31:57;210.57;;;58.77;;
19187;SDS011;9726;52.198;8.792;2024-02-28T09:34:27;203.20;;;54.40;;
19187;SDS011;9726;52.198;8.792;2024-02-28T09:36:54;197.70;;;55.73;;
19187;SDS011;9726;52.198;8.792;2024-02-28T09:39:21;186.37;;;53.37;;
19187;SDS011;9726;52.198;8.792;2024-02-28T09:41:48;183.70;;;52.53;;
19187;SDS011;9726;52.198;8.792;2024-02-28T09:44:16;184.77;;;53.00;;
19187;SDS011;9726;52.198;8.792;2024-02-28T09:46:44;167.63;;;50.80;;
19187;SDS011;9726;52.198;8.792;2024-02-28T09:49:14;155.40;;;49.23;;
19187;SDS011;9726;52.198;8.792;2024-02-28T09:51:42;167.43;;;48.90;;
19187;SDS011;9726;52.198;8.792;2024-02-28T09:54:10;169.00;;;49.33;;
19187;SDS011;9726;52.198;8.792;2024-02-28T09:56:38;154.33;;;45.73;;
19187;SDS011;9726;52.198;8.792;2024-02-28T09:59:07;158.87;;;47.93;;
19187;SDS011;9726;52.198;8.792;2024-02-28T10:01:35;158.17;;;47.13;;
19187;SDS011;9726;52.198;8.792;2024-02-28T10:04:11;152.83;;;45.47;;
19187;SDS011;9726;52.198;8.792;2024-02-28T10:06:40;134.47;;;47.10;;
19187;SDS011;9726;52.198;8.792;2024-02-28T10:09:08;141.20;;;47.40;;
19187;SDS011;9726;52.198;8.792;2024-02-28T10:11:37;132.47;;;42.30;;
19187;SDS011;9726;52.198;8.792;2024-02-28T10:14:04;122.47;;;43.93;;
19187;SDS011;9726;52.198;8.792;2024-02-28T10:16:32;131.47;;;42.30;;
19187;SDS011;9726;52.198;8.792;2024-02-28T10:18:59;125.83;;;43.53;;
19187;SDS011;9726;52.198;8.792;2024-02-28T10:21:27;140.43;;;44.33;;
19187;SDS011;9726;52.198;8.792;2024-02-28T10:23:59;139.57;;;45.73;;
19187;SDS011;9726;52.198;8.792;2024-02-28T10:26:31;136.57;;;47.23;;
19187;SDS011;9726;52.198;8.792;2024-02-28T10:29:03;118.50;;;40.73;;
19187;SDS011;9726;52.198;8.792;2024-02-28T10:31:32;124.70;;;43.33;;
19187;SDS011;9726;52.198;8.792;2024-02-28T10:34:04;118.97;;;40.57;;
19187;SDS011;9726;52.198;8.792;2024-02-28T10:36:34;118.47;;;44.33;;
19187;SDS011;9726;52.198;8.792;2024-02-28T10:39:02;120.23;;;39.50;;
19187;SDS011;9726;52.198;8.792;2024-02-28T10:41:30;110.27;;;40.03;;
19187;SDS011;9726;52.198;8.792;2024-02-28T10:44:01;115.73;;;40.13;;
19187;SDS011;9726;52.198;8.792;2024-02-28T10:46:28;129.67;;;43.07;;
19187;SDS011;9726;52.198;8.792;2024-02-28T10:49:03;123.23;;;42.40;;
19187;SDS011;9726;52.198;8.792;2024-02-28T10:51:34;116.67;;;41.67;;
19187;SDS011;9726;52.198;8.792;2024-02-28T10:54:13;115.20;;;41.07;;
19187;SDS011;9726;52.198;8.792;2024-02-28T10:56:42;118.00;;;42.07;;
19187;SDS011;9726;52.198;8.792;2024-02-28T10:59:12;119.77;;;41.37;;
19187;SDS011;9726;52.198;8.792;2024-02-28T11:01:40;114.60;;;40.60;;
19187;SDS011;9726;52.198;8.792;2024-02-28T11:04:12;117.53;;;43.43;;
19187;SDS011;9726;52.198;8.792;2024-02-28T11:06:49;117.47;;;39.37;;
19187;SDS011;9726;52.198;8.792;2024-02-28T11:09:19;120.70;;;42.03;;
19187;SDS011;9726;52.198;8.792;2024-02-28T11:11:49;113.07;;;38.63;;
19187;SDS011;9726;52.198;8.792;2024-02-28T11:14:21;114.17;;;40.50;;
19187;SDS011;9726;52.198;8.792;2024-02-28T11:19:29;102.83;;;39.33;;
19187;SDS011;9726;52.198;8.792;2024-02-28T11:22:02;108.00;;;38.70;;
19187;SDS011;9726;52.198;8.792;2024-02-28T11:24:35;105.70;;;39.50;;
19187;SDS011;9726;52.198;8.792;2024-02-28T11:27:05;111.17;;;39.23;;
19187;SDS011;9726;52.198;8.792;2024-02-28T11:29:36;125.57;;;42.17;;
19187;SDS011;9726;52.198;8.792;2024-02-28T11:32:06;106.40;;;37.90;;
19187;SDS011;9726;52.198;8.792;2024-02-28T11:34:35;106.27;;;39.50;;
19187;SDS011;9726;52.198;8.792;2024-02-28T11:37:03;101.27;;;37.03;;
19187;SDS011;9726;52.198;8.792;2024-02-28T11:39:30;101.57;;;38.53;;
19187;SDS011;9726;52.198;8.792;2024-02-28T11:42:14;107.90;;;35.27;;
19187;SDS011;9726;52.198;8.792;2024-02-28T11:44:43;101.70;;;36.13;;
19187;SDS011;9726;52.198;8.792;2024-02-28T11:47:22;93.10;;;34.90;;
19187;SDS011;9726;52.198;8.792;2024-02-28T11:49:49;100.97;;;38.07;;
19187;SDS011;9726;52.198;8.792;2024-02-28T11:52:16;103.90;;;39.50;;
19187;SDS011;9726;52.198;8.792;2024-02-28T11:54:44;106.60;;;38.77;;
19187;SDS011;9726;52.198;8.792;2024-02-28T11:57:12;102.83;;;37.67;;
19187;SDS011;9726;52.198;8.792;2024-02-28T11:59:44;101.70;;;35.70;;
19187;SDS011;9726;52.198;8.792;2024-02-28T12:02:12;102.63;;;36.00;;
19187;SDS011;9726;52.198;8.792;2024-02-28T12:04:44;98.27;;;36.13;;
19187;SDS011;9726;52.198;8.792;2024-02-28T12:07:11;94.60;;;35.87;;
19187;SDS011;9726;52.198;8.792;2024-02-28T12:09:38;91.30;;;34.20;;
19187;SDS011;9726;52.198;8.792;2024-02-28T12:12:08;100.20;;;37.90;;
19187;SDS011;9726;52.198;8.792;2024-02-28T12:14:36;97.30;;;36.73;;
19187;SDS011;9726;52.198;8.792;2024-02-28T12:17:07;109.57;;;38.43;;
19187;SDS011;9726;52.198;8.792;2024-02-28T12:19:50;93.50;;;35.03;;
19187;SDS011;9726;52.198;8.792;2024-02-28T12:22:22;94.27;;;35.43;;
19187;SDS011;9726;52.198;8.792;2024-02-28T12:24:54;103.67;;;36.27;;
19187;SDS011;9726;52.198;8.792;2024-02-28T12:27:23;105.83;;;38.03;;
19187;SDS011;9726;52.198;8.792;2024-02-28T12:29:52;97.07;;;37.27;;
19187;SDS011;9726;52.198;8.792;2024-02-28T12:32:19;95.27;;;33.40;;
19187;SDS011;9726;52.198;8.792;2024-02-28T12:34:50;100.83;;;37.30;;
19187;SDS011;9726;52.198;8.792;2024-02-28T12:37:21;108.17;;;36.87;;
19187;SDS011;9726;52.198;8.792;2024-02-28T12:39:48;94.50;;;34.27;;
19187;SDS011;9726;52.198;8.792;2024-02-28T12:46:10;98.37;;;35.53;;
19187;SDS011;9726;52.198;8.792;2024-02-28T12:48:38;100.57;;;36.53;;
19187;SDS011;9726;52.198;8.792;2024-02-28T12:51:06;99.87;;;36.33;;
19187;SDS011;9726;52.198;8.792;2024-02-28T12:53:37;109.20;;;39.37;;
19187;SDS011;9726;52.198;8.792;2024-02-28T12:56:04;129.20;;;40.93;;
19187;SDS011;9726;52.198;8.792;2024-02-28T12:58:32;102.40;;;37.30;;
19187;SDS011;9726;52.198;8.792;2024-02-28T13:00:59;96.97;;;35.87;;
19187;SDS011;9726;52.198;8.792;2024-02-28T13:03:26;111.27;;;39.70;;
19187;SDS011;9726;52.198;8.792;2024-02-28T13:05:54;108.70;;;38.03;;
19187;SDS011;9726;52.198;8.792;2024-02-28T13:08:21;113.10;;;37.47;;
19187;SDS011;9726;52.198;8.792;2024-02-28T13:10:48;111.00;;;38.43;;
19187;SDS011;9726;52.198;8.792;2024-02-28T13:13:16;100.70;;;35.87;;
19187;SDS011;9726;52.198;8.792;2024-02-28T13:15:43;91.13;;;33.37;;
19187;SDS011;9726;52.198;8.792;2024-02-28T13:18:12;107.67;;;35.40;;
19187;SDS011;9726;52.198;8.792;2024-02-28T13:20:39;101.18;;;37.92;;
19187;SDS011;9726;52.198;8.792;2024-02-28T13:23:06;102.17;;;38.03;;
19187;SDS011;9726;52.198;8.792;2024-02-28T13:25:34;118.77;;;39.43;;
19187;SDS011;9726;52.198;8.792;2024-02-28T13:28:01;116.47;;;38.37;;
19187;SDS011;9726;52.198;8.792;2024-02-28T13:30:29;108.17;;;35.67;;
19187;SDS011;9726;52.198;8.792;2024-02-28T13:32:56;94.80;;;34.70;;
19187;SDS011;9726;52.198;8.792;2024-02-28T13:35:24;99.03;;;35.93;;
19187;SDS011;9726;52.198;8.792;2024-02-28T13:37:54;101.70;;;35.23;;
19187;SDS011;9726;52.198;8.792;2024-02-28T13:40:26;100.53;;;35.67;;
19187;SDS011;9726;52.198;8.792;2024-02-28T13:42:53;99.67;;;33.90;;
19187;SDS011;9726;52.198;8.792;2024-02-28T13:45:21;93.63;;;33.77;;
19187;SDS011;9726;52.198;8.792;2024-02-28T13:47:48;95.27;;;33.90;;
19187;SDS011;9726;52.198;8.792;2024-02-28T13:50:15;85.87;;;31.47;;
19187;SDS011;9726;52.198;8.792;2024-02-28T13:52:42;85.73;;;33.83;;
19187;SDS011;9726;52.198;8.792;2024-02-28T13:55:09;91.77;;;34.20;;
19187;SDS011;9726;52.198;8.792;2024-02-28T13:57:38;103.43;;;34.27;;
19187;SDS011;9726;52.198;8.792;2024-02-28T14:00:09;93.73;;;34.70;;
19187;SDS011;9726;52.198;8.792;2024-02-28T14:02:40;102.40;;;37.73;;
19187;SDS011;9726;52.198;8.792;2024-02-28T14:05:07;101.87;;;36.13;;
19187;SDS011;9726;52.198;8.792;2024-02-28T14:07:34;97.30;;;36.13;;
19187;SDS011;9726;52.198;8.792;2024-02-28T14:10:04;104.40;;;34.13;;
19187;SDS011;9726;52.198;8.792;2024-02-28T14:12:32;114.93;;;38.33;;
19187;SDS011;9726;52.198;8.792;2024-02-28T14:14:59;110.33;;;38.73;;
19187;SDS011;9726;52.198;8.792;2024-02-28T14:17:26;100.60;;;35.50;;
19187;SDS011;9726;52.198;8.792;2024-02-28T14:19:54;108.33;;;34.90;;
19187;SDS011;9726;52.198;8.792;2024-02-28T14:22:21;108.07;;;35.83;;
19187;SDS011;9726;52.198;8.792;2024-02-28T14:24:48;109.40;;;35.63;;
19187;SDS011;9726;52.198;8.792;2024-02-28T14:27:15;98.90;;;35.47;;
19187;SDS011;9726;52.198;8.792;2024-02-28T14:29:43;109.93;;;37.47;;
19187;SDS011;9726;52.198;8.792;2024-02-28T14:32:10;97.77;;;37.83;;
19187;SDS011;9726;52.198;8.792;2024-02-28T14:34:37;103.57;;;39.70;;
19187;SDS011;9726;52.198;8.792;2024-02-28T14:37:04;108.20;;;39.00;;
19187;SDS011;9726;52.198;8.792;2024-02-28T14:39:31;101.07;;;36.67;;